Time;durP1;ratioP1;P1;durP2;ratioP2;P2;SDS_P1;SDS_P2;PMS_P1;PMS_P2;Temp;Humidity;BMP_temperature;BMP_pressure;BME280_temperature;BME280_humidity;BME280_pressure;Samples;Min_cycle;Max_cycle;Signal;HPM_P1;HPM_P2
2022/07/29 00:00:11;;;;;;;8.90;8.30;;;20.60;99.90;;;;;;4970165;28;20260;-66
2022/07/29 00:02:36;;;;;;;8.40;7.80;;;20.70;99.90;;;;;;4968759;28;20685;-66
2022/07/29 00:05:03;;;;;;;8.90;8.27;;;20.70;99.90;;;;;;4968808;28;20439;-66
2022/07/29 00:07:29;;;;;;;8.77;7.97;;;20.60;99.90;;;;;;4966962;28;20176;-66
2022/07/29 00:09:56;;;;;;;8.70;8.00;;;20.50;99.90;;;;;;4971777;28;20986;-67
2022/07/29 00:12:24;;;;;;;8.40;7.80;;;20.50;99.90;;;;;;4970954;28;20209;-67
2022/07/29 00:14:50;;;;;;;10.20;9.37;;;20.50;99.90;;;;;;4967425;28;20444;-67
2022/07/29 00:17:15;;;;;;;9.70;9.00;;;20.40;99.90;;;;;;4970754;28;20471;-66
2022/07/29 00:19:41;;;;;;;9.23;8.63;;;20.20;99.90;;;;;;4962511;28;20200;-70
2022/07/29 00:22:06;;;;;;;9.60;8.60;;;20.10;99.90;;;;;;4972677;28;20176;-69
2022/07/29 00:24:32;;;;;;;9.37;8.57;;;20.10;99.90;;;;;;4972133;28;20204;-69
2022/07/29 00:26:57;;;;;;;9.30;8.70;;;20.20;99.90;;;;;;4971920;28;20220;-70
2022/07/29 00:29:23;;;;;;;9.03;8.33;;;20.40;99.90;;;;;;4970019;28;20188;-69
2022/07/29 00:31:49;;;;;;;8.53;7.73;;;20.40;99.90;;;;;;4968545;28;20662;-67
2022/07/29 00:36:58;;;;;;;8.40;7.80;;;20.20;99.90;;;;;;4971477;28;20255;-67
2022/07/29 00:39:24;;;;;;;8.93;8.00;;;20.30;99.90;;;;;;4970834;28;20463;-67
2022/07/29 00:41:50;;;;;;;9.60;8.10;;;20.30;99.90;;;;;;4971320;28;20215;-69
2022/07/29 00:44:16;;;;;;;9.50;8.70;;;20.10;99.90;;;;;;4969501;28;20674;-69
2022/07/29 00:46:41;;;;;;;9.00;8.30;;;20.10;99.90;;;;;;4968450;28;20432;-70
2022/07/29 00:49:07;;;;;;;9.00;8.30;;;20.00;99.90;;;;;;4971070;28;20697;-69
2022/07/29 00:51:35;;;;;;;8.73;8.03;;;19.80;99.90;;;;;;4970250;28;20564;-69
2022/07/29 00:54:02;;;;;;;8.80;8.10;;;19.80;99.90;;;;;;4968722;28;20212;-68
2022/07/29 00:56:30;;;;;;;9.80;9.00;;;19.80;99.90;;;;;;4971536;28;20510;-69
2022/07/29 00:58:56;;;;;;;8.40;7.73;;;19.80;99.90;;;;;;4970490;28;20446;-68
2022/07/29 01:01:22;;;;;;;7.03;6.53;;;19.90;99.90;;;;;;4971121;28;20441;-69
2022/07/29 01:03:47;;;;;;;7.63;7.13;;;19.90;99.90;;;;;;4969882;28;20464;-68
2022/07/29 01:06:14;;;;;;;7.80;7.20;;;19.90;99.90;;;;;;4971016;28;20176;-69
2022/07/29 01:08:40;;;;;;;8.80;8.07;;;19.90;99.90;;;;;;4965218;28;20184;-69
2022/07/29 01:11:06;;;;;;;8.50;7.90;;;19.90;99.90;;;;;;4968676;28;20444;-69
2022/07/29 01:13:33;;;;;;;8.73;8.10;;;20.00;99.90;;;;;;4963889;28;20589;-69
2022/07/29 01:16:25;;;;;;;8.80;8.00;;;19.90;99.90;;;;;;4970523;28;20530;-71
2022/07/29 01:18:58;;;;;;;8.83;8.23;;;19.90;99.90;;;;;;4965860;28;20468;-70
2022/07/29 01:21:32;;;;;;;7.57;7.07;;;19.90;99.90;;;;;;4972803;28;20457;-71
2022/07/29 01:24:10;;;;;;;7.57;7.17;;;19.80;99.90;;;;;;4966616;28;20451;-69
2022/07/29 01:27:13;;;;;;;8.80;8.20;;;19.80;99.90;;;;;;4967386;28;21002;-67
2022/07/29 01:29:43;;;;;;;7.73;7.20;;;19.70;99.90;;;;;;4970126;28;20450;-69
2022/07/29 01:32:13;;;;;;;8.33;7.73;;;19.60;99.90;;;;;;4970224;28;20446;-68
2022/07/29 01:34:51;;;;;;;8.37;7.77;;;19.60;99.90;;;;;;4972235;28;20451;-70
2022/07/29 01:37:23;;;;;;;8.30;7.40;;;19.60;99.90;;;;;;4973037;28;20474;-67
2022/07/29 01:39:51;;;;;;;8.23;7.53;;;19.80;99.90;;;;;;4971880;28;20811;-70
2022/07/29 01:42:41;;;;;;;7.60;7.10;;;20.00;99.90;;;;;;4976177;28;20432;-71
2022/07/29 01:45:18;;;;;;;7.87;7.17;;;19.90;99.90;;;;;;4968536;28;20440;-70
2022/07/29 01:47:56;;;;;;;6.87;6.27;;;19.80;99.90;;;;;;4972715;28;20451;-70
2022/07/29 01:50:30;;;;;;;7.23;6.70;;;19.90;99.90;;;;;;4972528;28;20474;-70
2022/07/29 01:53:06;;;;;;;7.27;6.77;;;19.80;99.90;;;;;;4972015;28;20956;-67
2022/07/29 01:55:36;;;;;;;7.90;7.30;;;19.90;99.90;;;;;;4969777;28;20543;-67
2022/07/29 01:58:04;;;;;;;6.77;6.30;;;19.90;99.90;;;;;;4971858;28;20491;-67
2022/07/29 02:00:32;;;;;;;6.70;6.20;;;19.90;99.90;;;;;;4970748;28;20432;-67
2022/07/29 02:03:00;;;;;;;7.13;6.63;;;19.90;99.90;;;;;;4970930;28;20828;-68
2022/07/29 02:05:28;;;;;;;6.40;5.90;;;19.90;99.90;;;;;;4968108;28;20431;-68
2022/07/29 02:07:56;;;;;;;6.70;6.20;;;20.00;99.90;;;;;;4970903;28;20849;-67
2022/07/29 02:10:27;;;;;;;6.70;6.30;;;20.00;99.90;;;;;;4971469;28;20439;-67
2022/07/29 02:12:55;;;;;;;6.43;6.03;;;20.00;99.90;;;;;;4970229;28;20482;-67
2022/07/29 02:15:24;;;;;;;7.70;6.97;;;19.80;99.90;;;;;;4972710;28;20496;-70
2022/07/29 02:17:55;;;;;;;5.87;5.47;;;19.90;99.90;;;;;;4970721;28;20459;-70
2022/07/29 02:20:23;;;;;;;6.23;5.73;;;19.70;99.90;;;;;;4970053;28;20443;-70
2022/07/29 02:22:50;;;;;;;7.57;6.60;;;19.60;99.90;;;;;;4970449;28;20506;-70
2022/07/29 02:25:17;;;;;;;7.13;6.40;;;19.40;99.90;;;;;;4972777;28;20454;-69
2022/07/29 02:27:44;;;;;;;6.10;5.70;;;19.40;99.90;;;;;;4970730;28;20431;-70
2022/07/29 02:30:12;;;;;;;6.90;6.40;;;19.20;99.90;;;;;;4970621;28;20538;-70
2022/07/29 02:32:40;;;;;;;7.57;7.07;;;19.00;99.90;;;;;;4971568;28;20487;-70
2022/07/29 02:35:07;;;;;;;6.57;6.10;;;19.10;99.90;;;;;;4972295;28;20518;-69
2022/07/29 02:37:35;;;;;;;5.47;5.10;;;19.10;99.90;;;;;;4972662;28;20467;-69
2022/07/29 02:40:01;;;;;;;7.13;6.63;;;19.00;99.90;;;;;;4971305;28;20818;-70
2022/07/29 02:42:28;;;;;;;6.90;6.20;;;19.10;99.90;;;;;;4972879;28;20443;-71
2022/07/29 02:44:53;;;;;;;6.70;6.20;;;19.10;99.90;;;;;;4972911;28;20844;-70
2022/07/29 02:47:30;;;;;;;6.03;5.63;;;19.10;99.90;;;;;;4971365;28;20443;-70
2022/07/29 02:50:22;;;;;;;7.03;6.30;;;19.00;99.90;;;;;;4973548;28;20211;-70
2022/07/29 02:52:52;;;;;;;6.80;6.30;;;19.00;99.90;;;;;;4972042;28;20463;-70
2022/07/29 02:55:33;;;;;;;6.60;6.10;;;19.00;99.90;;;;;;4976338;28;20522;-70
2022/07/29 02:58:02;;;;;;;6.47;6.03;;;19.10;99.90;;;;;;4977098;28;20466;-69
2022/07/29 03:00:30;;;;;;;6.60;6.20;;;19.00;99.90;;;;;;4975416;28;20467;-70
2022/07/29 03:02:59;;;;;;;6.60;6.03;;;19.00;99.90;;;;;;4976813;28;20479;-70
2022/07/29 03:05:26;;;;;;;7.20;6.70;;;18.90;99.90;;;;;;4976293;28;20542;-69
2022/07/29 03:08:03;;;;;;;6.37;5.97;;;18.90;99.90;;;;;;4974889;28;20449;-67
2022/07/29 03:10:30;;;;;;;7.03;6.53;;;18.90;99.90;;;;;;4975085;28;20494;-70
2022/07/29 03:12:56;;;;;;;6.37;5.87;;;18.90;99.90;;;;;;4979552;28;20494;-68
2022/07/29 03:15:22;;;;;;;7.77;7.07;;;19.00;99.90;;;;;;4992069;28;20443;-69
2022/07/29 03:17:49;;;;;;;6.80;6.30;;;19.00;99.90;;;;;;4976613;28;20475;-68
2022/07/29 03:20:15;;;;;;;6.90;6.50;;;18.90;99.90;;;;;;4974857;28;20431;-67
2022/07/29 03:22:46;;;;;;;7.00;6.40;;;18.90;99.90;;;;;;4973119;28;20455;-67
2022/07/29 03:25:18;;;;;;;6.50;6.00;;;18.90;99.90;;;;;;4976603;28;20439;-68
2022/07/29 03:27:44;;;;;;;6.60;6.00;;;18.90;99.90;;;;;;4975786;28;20474;-68
2022/07/29 03:30:11;;;;;;;6.30;5.83;;;19.00;99.90;;;;;;4967153;28;20514;-68
2022/07/29 03:32:37;;;;;;;5.87;5.33;;;19.30;99.90;;;;;;4976264;28;20479;-66
2022/07/29 03:35:04;;;;;;;6.60;6.20;;;19.50;99.90;;;;;;4973442;28;20486;-67
2022/07/29 03:37:30;;;;;;;6.30;5.80;;;19.70;99.90;;;;;;4970138;28;20543;-67
2022/07/29 03:39:57;;;;;;;6.10;5.70;;;19.60;99.90;;;;;;4968408;28;20554;-67
2022/07/29 03:42:32;;;;;;;5.70;5.30;;;19.60;99.90;;;;;;4972127;28;20439;-67
2022/07/29 03:45:00;;;;;;;5.60;5.20;;;19.60;99.90;;;;;;4973570;28;20494;-67
2022/07/29 03:47:28;;;;;;;7.03;6.43;;;19.40;99.90;;;;;;4971527;28;20450;-53
2022/07/29 03:49:58;;;;;;;6.57;6.07;;;19.20;99.90;;;;;;4967282;28;20451;-53
2022/07/29 03:52:24;;;;;;;6.47;5.97;;;19.10;99.90;;;;;;4959510;28;20803;-53
2022/07/29 03:54:49;;;;;;;6.50;6.10;;;19.00;99.90;;;;;;4982880;28;20493;-56
2022/07/29 03:57:16;;;;;;;6.37;5.87;;;18.90;99.90;;;;;;4981903;28;20764;-56
2022/07/29 03:59:43;;;;;;;6.50;6.10;;;18.80;99.90;;;;;;4981902;28;20176;-52
2022/07/29 04:02:11;;;;;;;5.73;5.37;;;19.00;99.90;;;;;;4972574;28;20440;-52
2022/07/29 04:04:37;;;;;;;6.33;5.93;;;19.00;99.90;;;;;;4967598;28;20471;-52
2022/07/29 04:07:03;;;;;;;7.03;6.07;;;18.90;99.90;;;;;;4971588;28;20518;-56
2022/07/29 04:09:29;;;;;;;5.60;5.30;;;19.10;99.90;;;;;;4972613;28;20443;-55
2022/07/29 04:11:54;;;;;;;5.50;5.00;;;19.30;99.90;;;;;;4987744;28;20450;-55
2022/07/29 04:14:20;;;;;;;6.33;5.83;;;19.50;99.90;;;;;;4988063;28;20450;-54
2022/07/29 04:16:46;;;;;;;6.27;5.87;;;19.50;99.90;;;;;;4984907;28;20212;-56
2022/07/29 04:19:12;;;;;;;6.87;6.37;;;19.50;99.90;;;;;;4987444;28;20223;-56
2022/07/29 04:21:39;;;;;;;7.23;6.73;;;19.50;99.90;;;;;;4980937;28;20435;-52
2022/07/29 04:24:05;;;;;;;7.27;6.57;;;19.50;99.90;;;;;;4969080;28;20216;-53
2022/07/29 04:26:30;;;;;;;6.40;5.90;;;19.50;99.90;;;;;;4974759;28;20518;-52
2022/07/29 04:28:56;;;;;;;6.63;6.13;;;19.50;99.90;;;;;;4985125;28;20517;-53
2022/07/29 04:31:21;;;;;;;5.87;5.37;;;19.60;99.90;;;;;;4982810;28;20180;-53
2022/07/29 04:33:47;;;;;;;7.23;6.53;;;19.70;99.90;;;;;;4988004;28;20215;-54
2022/07/29 04:36:13;;;;;;;7.77;7.17;;;19.70;99.90;;;;;;4984977;28;20715;-54
2022/07/29 04:38:38;;;;;;;5.33;5.03;;;19.70;99.90;;;;;;4984387;28;20237;-52
2022/07/29 04:41:04;;;;;;;5.00;4.60;;;19.60;99.90;;;;;;4952625;28;20184;-54
2022/07/29 04:43:30;;;;;;;5.30;4.90;;;19.80;99.90;;;;;;4972908;28;20546;-51
2022/07/29 04:45:56;;;;;;;5.10;4.63;;;19.90;99.90;;;;;;4970775;28;20450;-51
2022/07/29 04:48:21;;;;;;;5.03;4.60;;;20.00;99.90;;;;;;4970976;28;20887;-54
2022/07/29 04:50:47;;;;;;;5.37;4.87;;;19.90;99.90;;;;;;4970448;28;20180;-57
2022/07/29 04:53:12;;;;;;;5.73;5.23;;;19.90;99.90;;;;;;4975423;28;20223;-56
2022/07/29 04:55:38;;;;;;;4.60;4.30;;;20.10;99.90;;;;;;4972905;28;20188;-53
2022/07/29 04:58:03;;;;;;;3.97;3.67;;;20.60;99.90;;;;;;4955112;28;20243;-52
2022/07/29 05:00:29;;;;;;;6.50;4.20;;;20.20;99.90;;;;;;4969198;28;20180;-54
2022/07/29 05:02:54;;;;;;;5.30;5.00;;;20.20;99.90;;;;;;4972072;28;20204;-52
2022/07/29 05:05:20;;;;;;;4.33;3.93;;;20.20;99.90;;;;;;4972474;28;20554;-54
2022/07/29 05:07:45;;;;;;;4.87;4.57;;;20.10;99.90;;;;;;4971285;28;20176;-50
2022/07/29 05:10:11;;;;;;;3.97;3.67;;;20.20;99.90;;;;;;4961611;28;20183;-52
2022/07/29 05:12:37;;;;;;;4.37;4.07;;;20.40;99.90;;;;;;4976765;28;20195;-51
2022/07/29 05:15:03;;;;;;;4.33;4.03;;;20.40;99.90;;;;;;4979979;28;20649;-55
2022/07/29 05:17:28;;;;;;;4.47;4.17;;;20.50;99.90;;;;;;4990612;28;20195;-56
2022/07/29 05:19:54;;;;;;;4.00;3.70;;;20.50;99.90;;;;;;4982396;28;21096;-52
2022/07/29 05:22:20;;;;;;;3.43;3.23;;;20.50;99.90;;;;;;4983472;28;20552;-54
2022/07/29 05:24:46;;;;;;;4.00;3.60;;;20.60;99.90;;;;;;4983019;28;20179;-59
2022/07/29 05:27:12;;;;;;;7.17;4.30;;;20.70;99.90;;;;;;4970695;28;20449;-54
2022/07/29 05:29:37;;;;;;;4.43;4.13;;;20.90;99.90;;;;;;4969656;28;20443;-56
2022/07/29 05:32:04;;;;;;;4.13;3.83;;;21.10;99.90;;;;;;4974417;28;20199;-58
2022/07/29 05:34:30;;;;;;;4.70;4.30;;;21.20;99.90;;;;;;4971054;28;20212;-53
2022/07/29 05:36:56;;;;;;;4.57;4.27;;;21.30;99.90;;;;;;4969256;28;20469;-53
2022/07/29 05:39:23;;;;;;;3.87;3.50;;;21.50;99.90;;;;;;4969181;28;20944;-52
2022/07/29 05:41:48;;;;;;;4.57;4.20;;;21.70;99.90;;;;;;4972149;28;20733;-54
2022/07/29 05:44:14;;;;;;;4.97;4.20;;;21.70;99.90;;;;;;4971679;28;20459;-51
2022/07/29 05:46:39;;;;;;;4.50;4.20;;;21.70;99.90;;;;;;4971930;28;20176;-56
2022/07/29 05:49:06;;;;;;;4.83;4.53;;;21.50;99.90;;;;;;4981340;28;20176;-57
2022/07/29 05:51:32;;;;;;;5.50;5.20;;;21.50;99.90;;;;;;4985712;28;20178;-58
2022/07/29 05:53:58;;;;;;;5.07;4.77;;;21.40;99.90;;;;;;4988417;28;20459;-53
2022/07/29 05:56:23;;;;;;;4.93;4.53;;;21.50;99.90;;;;;;4984691;28;20999;-58
2022/07/29 05:58:49;;;;;;;6.00;4.30;;;21.60;99.90;;;;;;4976256;28;20176;-60
2022/07/29 06:01:14;;;;;;;4.50;4.20;;;21.70;99.90;;;;;;4973326;28;20177;-59
2022/07/29 06:03:41;;;;;;;4.47;4.17;;;21.80;99.90;;;;;;4974842;28;20196;-59
2022/07/29 06:06:07;;;;;;;4.77;4.30;;;21.90;99.90;;;;;;4971635;28;20639;-56
2022/07/29 06:08:33;;;;;;;5.30;4.80;;;22.10;99.90;;;;;;4978573;28;20931;-55
2022/07/29 06:10:59;;;;;;;5.70;5.30;;;22.10;99.90;;;;;;4972479;28;20519;-60
2022/07/29 06:13:25;;;;;;;5.03;4.70;;;22.10;99.90;;;;;;4971784;28;20581;-58
2022/07/29 06:15:50;;;;;;;5.33;5.00;;;22.10;99.90;;;;;;4978349;28;20434;-58
2022/07/29 06:18:16;;;;;;;6.50;5.97;;;21.90;99.90;;;;;;4991356;28;20669;-57
2022/07/29 06:20:42;;;;;;;5.73;5.20;;;21.90;99.90;;;;;;4992193;28;20641;-58
2022/07/29 06:23:07;;;;;;;5.60;5.10;;;22.20;99.90;;;;;;4992289;28;20262;-57
2022/07/29 06:25:35;;;;;;;5.10;4.80;;;22.60;99.90;;;;;;4995682;28;20641;-59
2022/07/29 06:28:00;;;;;;;4.50;4.20;;;23.10;99.90;;;;;;4995805;28;20172;-61
2022/07/29 06:30:26;;;;;;;5.60;5.20;;;23.50;99.90;;;;;;4995322;28;20418;-58
2022/07/29 06:32:52;;;;;;;5.13;4.73;;;23.70;99.90;;;;;;4995741;28;20205;-58
2022/07/29 06:35:18;;;;;;;5.17;4.70;;;24.00;99.90;;;;;;4995783;28;20423;-60
2022/07/29 06:37:43;;;;;;;5.40;5.10;;;24.30;99.90;;;;;;4995605;28;20295;-61
2022/07/29 06:42:54;;;;;;;7.63;5.33;;;24.10;99.90;;;;;;4995499;28;20210;-60
2022/07/29 06:45:19;;;;;;;6.00;5.40;;;23.80;99.90;;;;;;4995633;28;20426;-59
2022/07/29 06:47:45;;;;;;;5.73;5.37;;;23.80;99.90;;;;;;4995519;28;20176;-59
2022/07/29 06:50:12;;;;;;;6.00;5.60;;;23.70;99.90;;;;;;4994775;28;20210;-60
2022/07/29 06:52:38;;;;;;;6.73;6.23;;;23.80;99.90;;;;;;4980292;28;20208;-58
2022/07/29 06:55:04;;;;;;;6.37;5.87;;;23.60;99.90;;;;;;4948048;28;20818;-59
2022/07/29 06:57:30;;;;;;;6.13;5.40;;;23.30;99.90;;;;;;4966339;28;20460;-59
2022/07/29 06:59:58;;;;;;;5.87;5.27;;;23.40;99.90;;;;;;4973547;28;20482;-66
2022/07/29 07:02:24;;;;;;;5.80;5.30;;;23.60;99.90;;;;;;4974945;28;20176;-66
2022/07/29 07:04:49;;;;;;;5.67;5.27;;;24.00;99.90;;;;;;4972438;28;20419;-66
2022/07/29 07:07:15;;;;;;;5.83;5.33;;;24.20;99.90;;;;;;4975833;28;20179;-66
2022/07/29 07:09:40;;;;;;;5.00;4.60;;;24.10;99.90;;;;;;4974967;28;20514;-66
2022/07/29 07:12:06;;;;;;;5.77;5.27;;;24.50;99.90;;;;;;4975242;28;20199;-66
2022/07/29 07:14:32;;;;;;;7.50;6.90;;;24.80;99.90;;;;;;4969732;28;20208;-66
2022/07/29 07:16:59;;;;;;;6.53;6.03;;;24.80;99.90;;;;;;4972405;28;20224;-66
2022/07/29 07:19:25;;;;;;;6.33;5.73;;;25.00;99.90;;;;;;4966876;28;20316;-66
2022/07/29 07:21:52;;;;;;;6.40;5.87;;;25.40;99.90;;;;;;4975104;28;20427;-66
2022/07/29 07:24:17;;;;;;;5.90;5.40;;;25.30;99.90;;;;;;4971332;28;20690;-64
2022/07/29 07:26:43;;;;;;;5.03;4.73;;;25.70;99.90;;;;;;4974711;28;20434;-64
2022/07/29 07:29:08;;;;;;;5.63;5.00;;;25.70;99.90;;;;;;4974769;28;20177;-64
2022/07/29 07:31:35;;;;;;;6.03;5.53;;;25.70;99.90;;;;;;4974105;28;20171;-64
2022/07/29 07:34:01;;;;;;;6.17;5.77;;;25.90;99.90;;;;;;4971844;28;20696;-64
2022/07/29 07:36:26;;;;;;;5.73;5.23;;;26.00;99.90;;;;;;4974005;28;20427;-64
2022/07/29 07:38:52;;;;;;;5.93;5.53;;;26.30;99.90;;;;;;4974242;28;20250;-64
2022/07/29 07:41:17;;;;;;;7.83;7.13;;;26.20;99.90;;;;;;4956896;28;20164;-64
2022/07/29 07:43:43;;;;;;;5.77;5.37;;;26.70;99.90;;;;;;4971288;28;20196;-64
2022/07/29 07:46:08;;;;;;;5.90;5.60;;;27.00;99.90;;;;;;4974908;28;20646;-64
2022/07/29 07:48:34;;;;;;;6.67;6.07;;;27.00;99.90;;;;;;4973443;28;20172;-64
2022/07/29 07:51:00;;;;;;;5.87;5.47;;;27.50;99.90;;;;;;4973649;28;20207;-64
2022/07/29 07:53:26;;;;;;;5.97;5.30;;;27.70;99.90;;;;;;4971531;28;20245;-66
2022/07/29 07:55:51;;;;;;;5.50;5.13;;;27.90;99.90;;;;;;4973914;28;20187;-64
2022/07/29 07:58:17;;;;;;;5.37;4.97;;;28.00;99.90;;;;;;4973502;28;20208;-64
2022/07/29 08:00:42;;;;;;;5.77;5.37;;;28.20;99.90;;;;;;4974764;28;20538;-64
2022/07/29 08:03:08;;;;;;;6.23;5.77;;;28.20;99.90;;;;;;4969718;28;20212;-63
2022/07/29 08:05:33;;;;;;;5.57;5.20;;;28.40;99.90;;;;;;4965674;28;20181;-64
2022/07/29 08:07:59;;;;;;;6.40;5.90;;;28.50;99.90;;;;;;4970341;28;20184;-63
2022/07/29 08:13:20;;;;;;;5.73;5.30;;;28.40;99.90;;;;;;4961418;28;20215;-64
2022/07/29 08:15:46;;;;;;;6.00;5.60;;;28.70;99.90;;;;;;4954605;28;20502;-64
2022/07/29 08:18:13;;;;;;;6.47;6.00;;;29.00;99.90;;;;;;4951193;29;20464;-64
2022/07/29 08:20:39;;;;;;;6.90;6.30;;;29.50;99.60;;;;;;4959469;28;20177;-63
2022/07/29 08:23:08;;;;;;;5.87;5.40;;;29.60;96.30;;;;;;4951942;28;20456;-64
2022/07/29 08:25:35;;;;;;;5.60;5.20;;;29.70;93.80;;;;;;4969703;28;20473;-64
2022/07/29 08:28:01;;;;;;;5.80;5.40;;;30.10;92.10;;;;;;4953469;28;20460;-63
2022/07/29 08:30:26;;;;;;;5.77;5.30;;;30.10;91.50;;;;;;4950767;29;20456;-63
2022/07/29 08:32:52;;;;;;;7.33;5.30;;;30.20;90.30;;;;;;4958482;28;20488;-64
2022/07/29 08:35:19;;;;;;;7.43;6.73;;;30.40;90.90;;;;;;4969825;28;20184;-65
2022/07/29 08:37:45;;;;;;;6.03;5.67;;;30.10;87.40;;;;;;4969791;28;20460;-63
2022/07/29 08:40:11;;;;;;;6.37;5.77;;;30.40;87.30;;;;;;4951227;28;20428;-66
2022/07/29 08:42:36;;;;;;;8.40;6.30;;;30.40;85.50;;;;;;4950464;28;20455;-64
2022/07/29 08:45:04;;;;;;;5.60;5.20;;;30.00;84.70;;;;;;4967360;28;20427;-65
2022/07/29 08:47:29;;;;;;;6.50;6.10;;;29.80;85.70;;;;;;4969878;28;20191;-65
2022/07/29 08:49:55;;;;;;;5.60;5.30;;;29.80;87.00;;;;;;4962525;28;20432;-65
2022/07/29 08:52:23;;;;;;;10.43;5.70;;;30.30;86.70;;;;;;4951095;29;20421;-65
2022/07/29 08:54:49;;;;;;;6.43;4.90;;;30.80;85.20;;;;;;4964509;28;20208;-65
2022/07/29 08:57:16;;;;;;;6.87;6.30;;;31.10;83.80;;;;;;4954395;28;20981;-64
2022/07/29 08:59:42;;;;;;;6.63;6.00;;;31.50;81.70;;;;;;4954542;28;20442;-65
2022/07/29 09:02:25;;;;;;;5.73;5.33;;;31.60;80.40;;;;;;4964724;28;20515;-65
2022/07/29 09:04:51;;;;;;;6.40;5.80;;;31.60;78.90;;;;;;4965782;28;20445;-64
2022/07/29 09:07:18;;;;;;;7.50;6.17;;;31.70;78.90;;;;;;4969119;28;20432;-64
2022/07/29 09:09:44;;;;;;;5.90;5.50;;;31.70;77.70;;;;;;4953160;28;20203;-65
2022/07/29 09:12:13;;;;;;;6.40;5.80;;;31.50;76.10;;;;;;4950931;29;20424;-65
2022/07/29 09:14:39;;;;;;;5.67;5.27;;;31.70;75.60;;;;;;4954217;28;20546;-65
2022/07/29 09:17:06;;;;;;;6.23;5.33;;;31.90;75.50;;;;;;4951772;28;20554;-65
2022/07/29 09:19:34;;;;;;;7.57;5.30;;;32.20;73.50;;;;;;4965298;28;20490;-65
2022/07/29 09:22:02;;;;;;;5.87;5.50;;;32.70;72.80;;;;;;4972233;28;20416;-65
2022/07/29 09:24:38;;;;;;;6.80;6.20;;;33.10;70.40;;;;;;4967594;28;20816;-64
2022/07/29 09:27:22;;;;;;;7.00;6.50;;;32.60;69.40;;;;;;4953848;29;20950;-65
2022/07/29 09:29:56;;;;;;;6.90;6.27;;;32.80;69.30;;;;;;4960006;28;20423;-64
2022/07/29 09:32:21;;;;;;;6.17;5.67;;;32.60;69.50;;;;;;4953977;28;20432;-65
2022/07/29 09:34:47;;;;;;;6.80;6.27;;;32.90;68.80;;;;;;4968389;28;20412;-64
2022/07/29 09:37:26;;;;;;;9.77;6.63;;;33.20;67.00;;;;;;4964301;28;20204;-65
2022/07/29 09:39:52;;;;;;;6.20;5.70;;;32.70;67.20;;;;;;4953408;29;20169;-64
2022/07/29 09:42:28;;;;;;;6.43;6.13;;;32.70;66.90;;;;;;4961292;28;20860;-65
2022/07/29 09:44:53;;;;;;;11.07;5.80;;;33.50;66.00;;;;;;4969087;28;20434;-65
2022/07/29 09:47:21;;;;;;;6.53;5.80;;;33.80;65.00;;;;;;4971885;28;20420;-65
2022/07/29 09:49:54;;;;;;;6.80;6.20;;;34.20;62.70;;;;;;4971846;28;20215;-65
2022/07/29 09:52:21;;;;;;;6.53;6.03;;;34.70;61.50;;;;;;4972812;28;20426;-65
2022/07/29 09:54:46;;;;;;;5.80;5.37;;;35.40;60.30;;;;;;4966939;28;20427;-65
2022/07/29 09:57:28;;;;;;;6.20;5.70;;;36.00;59.30;;;;;;4953567;29;20452;-65
2022/07/29 10:00:03;;;;;;;6.83;6.23;;;36.40;58.10;;;;;;4964588;28;20176;-65
2022/07/29 10:02:33;;;;;;;7.77;7.27;;;35.50;58.00;;;;;;4976690;28;20446;-65
2022/07/29 10:05:00;;;;;;;10.60;5.90;;;35.40;57.50;;;;;;4974318;28;20425;-66
2022/07/29 10:07:42;;;;;;;9.23;6.50;;;34.80;57.30;;;;;;4975308;28;20431;-64
2022/07/29 10:10:08;;;;;;;6.13;5.63;;;33.60;58.30;;;;;;4958730;28;20423;-64
2022/07/29 10:12:33;;;;;;;7.57;6.67;;;33.20;59.30;;;;;;4972199;28;21028;-67
2022/07/29 10:15:01;;;;;;;6.73;6.23;;;33.70;59.40;;;;;;4973915;28;20267;-65
2022/07/29 10:17:27;;;;;;;9.00;6.80;;;33.70;58.40;;;;;;4974871;28;20669;-64
2022/07/29 10:19:53;;;;;;;7.80;6.90;;;33.30;58.90;;;;;;4975954;28;20419;-64
2022/07/29 10:22:19;;;;;;;6.37;5.90;;;33.00;59.70;;;;;;4974866;28;20447;-64
2022/07/29 10:24:45;;;;;;;7.00;6.43;;;32.80;60.30;;;;;;4972183;28;20183;-64
2022/07/29 10:27:10;;;;;;;7.03;6.43;;;32.00;60.20;;;;;;4976487;28;20709;-64
2022/07/29 10:29:36;;;;;;;8.23;6.47;;;31.90;61.30;;;;;;4974325;28;20427;-63
2022/07/29 10:32:36;;;;;;;8.30;7.70;;;31.20;65.00;;;;;;4959114;28;20239;-66
2022/07/29 10:35:14;;;;;;;12.27;7.83;;;30.50;67.20;;;;;;4973074;28;20219;-66
2022/07/29 10:38:15;;;;;;;10.33;7.10;;;30.20;68.90;;;;;;4975829;28;20486;-66
2022/07/29 10:43:48;;;;;;;10.93;8.10;;;29.30;80.80;;;;;;4972047;28;20522;-66
2022/07/29 10:46:15;;;;;;;8.90;8.20;;;29.00;87.80;;;;;;4976057;28;20470;-66
2022/07/29 10:49:08;;;;;;;8.70;7.90;;;28.70;93.60;;;;;;4967594;28;20800;-67
2022/07/29 10:52:07;;;;;;;8.87;8.17;;;28.10;99.90;;;;;;4956050;29;20930;-65
2022/07/29 10:54:35;;;;;;;11.33;9.90;;;27.60;99.90;;;;;;4967402;28;20444;-66
2022/07/29 10:57:30;;;;;;;14.33;10.20;;;27.00;99.90;;;;;;4974278;28;20455;-65
2022/07/29 11:00:10;;;;;;;15.40;10.70;;;26.70;99.90;;;;;;4966959;28;20447;-66
2022/07/29 11:02:35;;;;;;;11.83;10.83;;;25.70;99.90;;;;;;4973734;28;20800;-67
2022/07/29 11:05:11;;;;;;;13.53;12.20;;;24.70;99.90;;;;;;4971566;28;20419;-66
2022/07/29 11:07:38;;;;;;;14.90;12.43;;;23.90;99.90;;;;;;4975308;28;20193;-66
2022/07/29 11:10:12;;;;;;;34.73;18.57;;;23.30;99.90;;;;;;4971704;28;20921;-66
2022/07/29 11:12:38;;;;;;;17.40;15.73;;;22.90;99.90;;;;;;4973772;28;20871;-66
2022/07/29 11:15:06;;;;;;;14.10;12.80;;;22.40;99.90;;;;;;4972986;28;20427;-66
2022/07/29 11:17:53;;;;;;;14.70;13.53;;;22.10;99.90;;;;;;4969484;28;20331;-67
2022/07/29 11:20:44;;;;;;;15.10;13.70;;;21.80;99.90;;;;;;4974863;28;20422;-66
2022/07/29 11:23:23;;;;;;;13.37;12.23;;;21.80;99.90;;;;;;4963299;28;20482;-66
2022/07/29 11:26:12;;;;;;;13.73;12.63;;;21.90;99.90;;;;;;4974864;28;20450;-66
2022/07/29 11:29:00;;;;;;;14.70;13.13;;;21.90;99.90;;;;;;4973298;28;20463;-66
2022/07/29 11:31:37;;;;;;;14.63;13.17;;;21.90;99.90;;;;;;4953081;28;20450;-66
2022/07/29 11:34:35;;;;;;;16.17;14.50;;;21.80;99.90;;;;;;4966505;28;20517;-67
2022/07/29 11:37:06;;;;;;;14.53;13.03;;;21.80;99.90;;;;;;4960457;28;20459;-65
2022/07/29 11:39:43;;;;;;;18.53;16.20;;;21.80;99.90;;;;;;4970944;28;20981;-66
2022/07/29 11:42:20;;;;;;;15.33;13.93;;;21.70;99.90;;;;;;4970661;28;20566;-66
2022/07/29 11:45:06;;;;;;;13.80;12.53;;;21.70;99.90;;;;;;4968040;28;20454;-67
2022/07/29 11:47:33;;;;;;;14.13;12.10;;;21.70;99.90;;;;;;4970702;28;20948;-66
2022/07/29 11:50:02;;;;;;;12.30;11.40;;;21.80;99.90;;;;;;4970200;28;20579;-66
2022/07/29 11:52:54;;;;;;;12.80;11.70;;;21.70;99.90;;;;;;4954303;28;20431;-66
2022/07/29 11:55:24;;;;;;;13.00;12.07;;;21.70;99.90;;;;;;4954401;28;20942;-66
2022/07/29 11:58:00;;;;;;;17.17;13.90;;;21.70;99.90;;;;;;4969197;28;21007;-67
2022/07/29 12:00:27;;;;;;;14.13;13.00;;;21.40;99.90;;;;;;4969757;28;20502;-66
2022/07/29 12:02:53;;;;;;;12.90;11.87;;;21.20;99.90;;;;;;4956263;28;20581;-66
2022/07/29 12:05:20;;;;;;;14.90;13.43;;;21.00;99.90;;;;;;4970707;28;20431;-66
2022/07/29 12:07:47;;;;;;;12.80;11.73;;;21.10;99.90;;;;;;4969548;28;20448;-66
2022/07/29 12:10:12;;;;;;;13.40;12.40;;;21.20;99.90;;;;;;4967336;28;20518;-66
2022/07/29 12:12:38;;;;;;;13.37;12.23;;;21.20;99.90;;;;;;4960243;28;20542;-66
2022/07/29 12:15:19;;;;;;;12.13;10.93;;;21.20;99.90;;;;;;4967474;28;20176;-65
2022/07/29 12:17:46;;;;;;;12.33;10.37;;;21.30;99.90;;;;;;4953111;28;20477;-64
2022/07/29 12:20:12;;;;;;;12.40;11.27;;;21.30;99.90;;;;;;4965564;28;20432;-64
2022/07/29 12:22:40;;;;;;;12.20;10.90;;;21.40;99.90;;;;;;4933811;28;20879;-65
2022/07/29 12:25:11;;;;;;;12.10;10.90;;;21.50;99.90;;;;;;4967956;28;20427;-64
2022/07/29 12:27:38;;;;;;;13.60;10.30;;;21.50;99.90;;;;;;4951293;29;20452;-65
2022/07/29 12:30:09;;;;;;;10.07;9.13;;;21.40;99.90;;;;;;4957339;28;20464;-65
2022/07/29 12:32:36;;;;;;;10.07;9.17;;;21.50;99.90;;;;;;4968747;28;20962;-65
2022/07/29 12:35:07;;;;;;;10.27;9.20;;;21.60;99.90;;;;;;4968088;28;20555;-64
2022/07/29 12:37:38;;;;;;;11.33;9.83;;;21.70;99.90;;;;;;4954092;28;20460;-64
2022/07/29 12:40:05;;;;;;;13.13;12.13;;;21.90;99.90;;;;;;4949560;29;20456;-64
2022/07/29 12:42:31;;;;;;;14.07;10.20;;;22.20;99.90;;;;;;4958870;28;20434;-63
2022/07/29 12:44:57;;;;;;;10.50;9.70;;;22.30;99.90;;;;;;4967676;28;20432;-63
2022/07/29 12:47:22;;;;;;;11.27;10.27;;;22.50;99.90;;;;;;4952263;28;20176;-64
2022/07/29 12:49:49;;;;;;;11.07;10.00;;;22.70;99.90;;;;;;4956652;28;20268;-65
2022/07/29 12:52:32;;;;;;;10.40;9.60;;;22.50;99.90;;;;;;4951116;29;20197;-64
2022/07/29 12:54:58;;;;;;;11.03;10.13;;;22.40;99.90;;;;;;4965945;28;20442;-65
2022/07/29 12:57:24;;;;;;;9.90;9.03;;;22.10;99.90;;;;;;4970106;28;20460;-64
2022/07/29 13:00:03;;;;;;;9.90;9.10;;;22.20;99.90;;;;;;4968868;28;20180;-63
2022/07/29 13:02:28;;;;;;;11.10;10.10;;;22.30;99.90;;;;;;4951630;28;20423;-64